Time;durP1;ratioP1;P1;durP2;ratioP2;P2;SDS_P1;SDS_P2;PMS_P1;PMS_P2;Temp;Humidity;BMP_temperature;BMP_pressure;BME280_temperature;BME280_humidity;BME280_pressure;Samples;Min_cycle;Max_cycle;Signal;HPM_P1;HPM_P2
2022/01/03 00:00:24;;;;;;;15.32;3.03;;;11.30;84.60;;;;;;5094687;28;20081;-72
2022/01/03 00:02:51;;;;;;;15.82;3.22;;;11.30;84.60;;;;;;5094731;28;20123;-72
2022/01/03 00:05:17;;;;;;;13.65;2.92;;;11.30;84.70;;;;;;5113008;28;20078;-71
2022/01/03 00:07:44;;;;;;;18.17;3.42;;;11.20;84.40;;;;;;5115979;28;20055;-73
2022/01/03 00:10:12;;;;;;;20.75;3.47;;;11.20;84.60;;;;;;5116915;28;20040;-72
2022/01/03 00:12:38;;;;;;;18.38;3.03;;;11.20;84.50;;;;;;5116922;28;20062;-72
2022/01/03 00:15:06;;;;;;;20.17;3.95;;;11.20;84.60;;;;;;5098998;28;20110;-71
2022/01/03 00:17:31;;;;;;;15.80;3.20;;;11.20;84.70;;;;;;5098592;28;20012;-72
2022/01/03 00:19:57;;;;;;;22.58;3.53;;;11.10;84.70;;;;;;5098565;28;20031;-72
2022/01/03 00:22:24;;;;;;;14.82;3.17;;;11.10;84.70;;;;;;5098686;28;20152;-72
2022/01/03 00:25:02;;;;;;;19.50;3.13;;;11.20;84.80;;;;;;5116621;28;20034;-72
2022/01/03 00:27:41;;;;;;;22.50;3.60;;;11.20;84.90;;;;;;5098696;28;20387;-72
2022/01/03 00:30:07;;;;;;;15.82;4.00;;;11.20;85.00;;;;;;5098246;28;20027;-72
2022/01/03 00:32:37;;;;;;;20.90;3.75;;;11.20;84.90;;;;;;5098249;28;20024;-72
2022/01/03 00:35:03;;;;;;;20.25;3.83;;;11.20;84.80;;;;;;5098163;28;20024;-72
2022/01/03 00:37:30;;;;;;;21.63;4.13;;;11.20;84.80;;;;;;5098044;28;20466;-72
2022/01/03 00:39:57;;;;;;;23.92;3.55;;;11.20;84.80;;;;;;5098105;28;20582;-72
2022/01/03 00:42:23;;;;;;;16.00;3.33;;;11.20;84.80;;;;;;5116421;28;20019;-72
2022/01/03 00:44:51;;;;;;;22.80;4.20;;;11.20;84.90;;;;;;5098026;28;20015;-71
2022/01/03 00:47:18;;;;;;;21.58;4.28;;;11.20;84.80;;;;;;5116307;28;20023;-72
2022/01/03 00:49:44;;;;;;;21.10;4.20;;;11.20;84.70;;;;;;5097877;28;20016;-71
2022/01/03 00:52:11;;;;;;;23.17;4.03;;;11.20;84.80;;;;;;5097775;28;20069;-72
2022/01/03 00:54:36;;;;;;;23.05;4.05;;;11.20;84.80;;;;;;5097682;28;20073;-72
2022/01/03 00:57:06;;;;;;;20.25;4.25;;;11.20;84.70;;;;;;5097630;28;20429;-71
2022/01/03 00:59:40;;;;;;;21.10;3.75;;;11.20;84.70;;;;;;5115872;28;20039;-72
2022/01/03 01:02:09;;;;;;;23.75;4.18;;;11.20;85.40;;;;;;5115894;28;20034;-74
2022/01/03 01:04:35;;;;;;;23.67;4.00;;;11.20;84.70;;;;;;5115871;28;20069;-72
2022/01/03 01:07:04;;;;;;;19.15;3.90;;;11.20;84.80;;;;;;5115789;28;20024;-72
2022/01/03 01:09:30;;;;;;;29.02;4.85;;;11.10;84.70;;;;;;5097516;28;20066;-71
2022/01/03 01:11:58;;;;;;;17.02;4.35;;;11.20;84.70;;;;;;5097554;28;20031;-72
2022/01/03 01:14:25;;;;;;;22.42;3.65;;;11.10;84.80;;;;;;5097231;28;20383;-72
2022/01/03 01:20:15;;;;;;;19.73;4.30;;;11.20;85.00;;;;;;5115869;28;20552;-71
2022/01/03 01:22:42;;;;;;;31.30;4.82;;;11.20;84.80;;;;;;5115607;28;20027;-72
2022/01/03 01:27:48;;;;;;;21.80;4.53;;;11.20;84.40;;;;;;5115941;28;20395;-79
2022/01/03 01:30:19;;;;;;;19.17;4.00;;;11.20;84.20;;;;;;5097039;28;20023;-81
2022/01/03 01:32:50;;;;;;;22.10;3.63;;;11.20;84.30;;;;;;5097277;28;20475;-81
2022/01/03 01:35:19;;;;;;;30.00;4.82;;;11.10;84.20;;;;;;5115435;28;20077;-80
2022/01/03 01:37:48;;;;;;;16.80;3.58;;;11.20;84.10;;;;;;5115432;28;20460;-78
2022/01/03 01:40:14;;;;;;;17.98;3.85;;;11.20;84.00;;;;;;5096971;28;20028;-77
2022/01/03 01:42:46;;;;;;;20.35;3.53;;;11.10;84.00;;;;;;5096970;28;20057;-78
2022/01/03 01:45:16;;;;;;;19.20;3.20;;;11.10;83.80;;;;;;5115452;28;20024;-77
2022/01/03 01:47:44;;;;;;;17.17;3.40;;;11.10;83.90;;;;;;5115190;28;20031;-78
2022/01/03 01:50:10;;;;;;;16.67;3.47;;;11.10;83.80;;;;;;5096681;28;20023;-77
2022/01/03 01:52:37;;;;;;;18.65;4.18;;;11.10;83.90;;;;;;5096758;28;20027;-79
2022/01/03 01:55:09;;;;;;;18.35;3.60;;;11.10;83.90;;;;;;5096665;28;20020;-78
2022/01/03 01:58:04;;;;;;;23.35;3.88;;;11.10;83.90;;;;;;5096562;28;20061;-79
2022/01/03 02:00:33;;;;;;;20.30;3.72;;;11.20;83.80;;;;;;5096410;28;20122;-78
2022/01/03 02:03:15;;;;;;;27.30;4.80;;;11.10;83.70;;;;;;5096503;28;20012;-78
2022/01/03 02:05:44;;;;;;;15.45;3.30;;;11.10;83.80;;;;;;5096440;28;20514;-78
2022/01/03 02:08:28;;;;;;;22.85;4.07;;;11.10;83.80;;;;;;5096514;28;20494;-78
2022/01/03 02:11:12;;;;;;;23.23;3.75;;;11.10;83.80;;;;;;5114554;28;20104;-78
2022/01/03 02:13:39;;;;;;;25.25;4.43;;;11.10;83.70;;;;;;5096185;28;20023;-78
2022/01/03 02:16:05;;;;;;;20.35;4.00;;;11.10;83.70;;;;;;5096216;28;20118;-78
2022/01/03 02:18:31;;;;;;;19.48;3.35;;;11.10;83.80;;;;;;5096088;28;20474;-78
2022/01/03 02:20:58;;;;;;;20.77;3.90;;;11.10;83.80;;;;;;5114459;28;20076;-78
2022/01/03 02:23:24;;;;;;;19.38;4.22;;;11.10;83.80;;;;;;5096015;28;20023;-77
2022/01/03 02:25:49;;;;;;;22.20;3.95;;;11.10;83.80;;;;;;5096060;28;20395;-78
2022/01/03 02:28:20;;;;;;;23.10;3.63;;;11.20;83.70;;;;;;5096016;28;20016;-78
2022/01/03 02:30:46;;;;;;;21.13;3.92;;;11.10;83.70;;;;;;5095430;28;20624;-78
2022/01/03 02:33:12;;;;;;;23.15;4.15;;;11.10;83.70;;;;;;5095827;28;20054;-78
2022/01/03 02:35:39;;;;;;;22.55;4.43;;;11.10;83.70;;;;;;5114447;28;20080;-78
2022/01/03 02:38:15;;;;;;;17.73;4.10;;;11.10;83.80;;;;;;5114118;28;20548;-78
2022/01/03 02:40:40;;;;;;;23.77;4.28;;;11.10;83.90;;;;;;5095923;28;20024;-75
2022/01/03 02:43:06;;;;;;;27.05;4.45;;;11.10;83.90;;;;;;5114066;28;20035;-78
2022/01/03 02:45:32;;;;;;;25.13;4.35;;;11.10;84.00;;;;;;5095627;28;20070;-78
2022/01/03 02:48:03;;;;;;;23.63;3.95;;;11.10;84.00;;;;;;5095609;28;20424;-78
2022/01/03 02:50:31;;;;;;;18.67;3.60;;;11.10;84.10;;;;;;5113846;28;20020;-78
2022/01/03 02:52:57;;;;;;;22.13;3.67;;;11.10;84.20;;;;;;5095877;28;20023;-78
2022/01/03 02:55:23;;;;;;;31.98;4.25;;;11.10;84.20;;;;;;5113811;28;20031;-77
2022/01/03 02:57:51;;;;;;;20.05;4.35;;;11.00;84.20;;;;;;5113780;28;20107;-78
2022/01/03 03:00:21;;;;;;;30.13;4.88;;;11.10;84.20;;;;;;5095200;28;20444;-77
2022/01/03 03:02:46;;;;;;;18.95;4.20;;;11.10;84.20;;;;;;5113658;28;20046;-77
2022/01/03 03:05:13;;;;;;;21.42;4.15;;;11.00;84.00;;;;;;5114040;28;20027;-78
2022/01/03 03:07:40;;;;;;;21.45;3.40;;;11.10;84.10;;;;;;5095498;28;20490;-77
2022/01/03 03:10:11;;;;;;;17.55;3.97;;;11.00;84.00;;;;;;5095250;28;20036;-78
2022/01/03 03:12:38;;;;;;;21.80;4.25;;;11.00;84.10;;;;;;5095196;28;20027;-78
2022/01/03 03:15:05;;;;;;;14.50;3.60;;;11.00;83.90;;;;;;5113521;28;20446;-73
2022/01/03 03:17:31;;;;;;;22.35;3.88;;;11.00;84.00;;;;;;5113358;28;20019;-74
2022/01/03 03:20:14;;;;;;;22.98;4.20;;;11.00;84.10;;;;;;5095173;28;20034;-73
2022/01/03 03:22:40;;;;;;;24.50;4.00;;;11.00;84.10;;;;;;5095695;28;20019;-73
2022/01/03 03:25:14;;;;;;;20.88;3.90;;;11.00;84.10;;;;;;5113327;28;20471;-80
2022/01/03 03:27:43;;;;;;;23.58;4.18;;;10.90;84.00;;;;;;5095094;28;20057;-80
2022/01/03 03:30:16;;;;;;;23.60;4.35;;;11.00;84.20;;;;;;5113244;28;20024;-80
2022/01/03 03:32:43;;;;;;;23.07;4.20;;;11.00;84.20;;;;;;5095239;28;20023;-80
2022/01/03 03:35:09;;;;;;;15.25;3.40;;;11.00;84.20;;;;;;5095212;28;20054;-80
2022/01/03 03:37:35;;;;;;;19.63;4.22;;;11.00;84.20;;;;;;5095177;28;20020;-79
2022/01/03 03:40:01;;;;;;;24.15;4.43;;;10.90;84.20;;;;;;5113427;28;20024;-80
2022/01/03 03:42:26;;;;;;;23.50;4.00;;;10.90;84.20;;;;;;5097818;28;20028;-79
2022/01/03 03:44:52;;;;;;;20.13;4.82;;;11.00;85.00;;;;;;5099149;28;20023;-80
2022/01/03 03:47:17;;;;;;;22.50;4.65;;;10.90;84.30;;;;;;5117564;28;20194;-80
2022/01/03 03:49:43;;;;;;;21.83;4.45;;;10.90;84.40;;;;;;5099198;28;20032;-80
2022/01/03 03:52:09;;;;;;;21.05;3.92;;;10.90;84.40;;;;;;5117540;28;20045;-80
2022/01/03 03:54:35;;;;;;;30.17;4.90;;;10.90;84.40;;;;;;5099027;28;20016;-80
2022/01/03 03:57:02;;;;;;;23.52;3.65;;;10.90;84.40;;;;;;5099029;28;20062;-80
2022/01/03 03:59:27;;;;;;;20.25;3.70;;;10.90;84.40;;;;;;5099161;28;20386;-81
2022/01/03 04:01:54;;;;;;;22.27;4.03;;;10.90;84.40;;;;;;5099250;28;20020;-79
2022/01/03 04:04:20;;;;;;;19.00;3.35;;;10.90;84.40;;;;;;5099369;28;20115;-81
2022/01/03 04:06:46;;;;;;;19.42;3.65;;;10.90;84.40;;;;;;5099175;28;20047;-80
2022/01/03 04:09:12;;;;;;;25.30;4.35;;;10.90;84.40;;;;;;5099116;28;20023;-79
2022/01/03 04:11:38;;;;;;;21.77;4.28;;;10.90;84.30;;;;;;5099020;28;20038;-82
2022/01/03 04:14:04;;;;;;;19.77;3.28;;;10.90;84.40;;;;;;5099106;28;20016;-80
2022/01/03 04:16:29;;;;;;;22.73;3.95;;;10.90;84.40;;;;;;5117695;28;20112;-80
2022/01/03 04:18:55;;;;;;;21.70;4.28;;;10.80;84.40;;;;;;5117236;28;20150;-80
2022/01/03 04:21:21;;;;;;;25.08;4.82;;;10.80;84.30;;;;;;5099166;28;20051;-79
2022/01/03 04:23:47;;;;;;;26.40;4.25;;;10.90;84.30;;;;;;5098848;28;20054;-81
2022/01/03 04:26:12;;;;;;;19.33;4.00;;;10.90;84.30;;;;;;5098618;28;20032;-80
2022/01/03 04:28:38;;;;;;;20.80;4.20;;;10.90;84.30;;;;;;5098713;28;20111;-80
2022/01/03 04:31:05;;;;;;;22.75;4.43;;;10.80;84.20;;;;;;5098794;28;20026;-80
2022/01/03 04:33:31;;;;;;;17.67;3.95;;;10.90;84.20;;;;;;5116482;28;20024;-79
2022/01/03 04:35:56;;;;;;;19.77;4.90;;;10.90;84.20;;;;;;5116590;28;20099;-80
2022/01/03 04:38:22;;;;;;;19.40;3.70;;;10.90;84.10;;;;;;5116714;28;20016;-80
2022/01/03 04:40:47;;;;;;;19.55;3.85;;;10.90;84.00;;;;;;5098166;28;20066;-79
2022/01/03 04:43:13;;;;;;;19.98;3.90;;;10.90;84.00;;;;;;5098169;28;20026;-79
2022/01/03 04:45:39;;;;;;;20.95;3.50;;;10.90;84.10;;;;;;5097971;28;20028;-79
2022/01/03 04:48:05;;;;;;;24.55;4.40;;;10.90;84.10;;;;;;5116159;28;20576;-79
2022/01/03 04:50:30;;;;;;;24.00;4.43;;;11.00;84.20;;;;;;5116135;28;20114;-79
2022/01/03 04:52:56;;;;;;;22.45;4.35;;;10.90;83.90;;;;;;5116011;28;20098;-80
2022/01/03 04:55:22;;;;;;;22.08;3.90;;;11.00;84.00;;;;;;5097875;28;20015;-80
2022/01/03 04:57:47;;;;;;;26.73;5.55;;;11.00;84.00;;;;;;5116223;28;20483;-80
2022/01/03 05:00:13;;;;;;;26.15;5.00;;;10.90;84.00;;;;;;5097478;28;20048;-79
2022/01/03 05:02:39;;;;;;;18.55;3.40;;;11.00;84.00;;;;;;5097666;28;20024;-79
2022/01/03 05:05:06;;;;;;;21.15;4.35;;;10.90;84.00;;;;;;5115964;28;20484;-80
2022/01/03 05:07:31;;;;;;;23.15;4.22;;;10.90;84.00;;;;;;5097509;28;20483;-79
2022/01/03 05:09:57;;;;;;;28.60;4.78;;;10.90;84.00;;;;;;5097405;28;20034;-79
2022/01/03 05:12:22;;;;;;;18.00;4.30;;;10.90;84.00;;;;;;5115596;28;20081;-79
2022/01/03 05:14:49;;;;;;;23.90;4.30;;;10.80;84.00;;;;;;5097270;28;20046;-79
2022/01/03 05:17:15;;;;;;;18.73;4.03;;;10.90;84.10;;;;;;5097409;28;20018;-80
2022/01/03 05:19:40;;;;;;;19.00;4.03;;;10.80;84.20;;;;;;5097352;28;20032;-79
2022/01/03 05:22:06;;;;;;;26.23;4.68;;;10.90;84.20;;;;;;5097354;28;20047;-79
2022/01/03 05:24:35;;;;;;;21.13;4.32;;;10.90;84.20;;;;;;5115556;28;20053;-80
2022/01/03 05:27:02;;;;;;;23.42;4.10;;;10.90;84.20;;;;;;5115550;28;20070;-79
2022/01/03 05:29:30;;;;;;;18.83;4.72;;;10.90;84.30;;;;;;5097131;28;20469;-79
2022/01/03 05:31:56;;;;;;;24.60;4.05;;;10.90;84.20;;;;;;5097118;28;20024;-79
2022/01/03 05:34:21;;;;;;;23.80;4.28;;;11.00;84.20;;;;;;5096960;28;20027;-79
2022/01/03 05:36:47;;;;;;;22.77;4.35;;;10.90;84.20;;;;;;5097034;28;20016;-79
2022/01/03 05:39:14;;;;;;;21.88;4.30;;;11.00;84.20;;;;;;5097060;28;20126;-79
2022/01/03 05:41:40;;;;;;;26.70;4.75;;;11.00;84.30;;;;;;5115238;28;20425;-79
2022/01/03 05:44:06;;;;;;;19.95;3.70;;;10.90;84.20;;;;;;5115252;28;20019;-79
2022/01/03 05:46:32;;;;;;;23.23;4.32;;;10.90;84.30;;;;;;5096928;28;20308;-80
2022/01/03 05:48:58;;;;;;;21.67;4.30;;;10.90;84.40;;;;;;5115004;28;20487;-80
2022/01/03 05:51:23;;;;;;;16.77;3.90;;;11.00;84.40;;;;;;5096610;28;20061;-79
2022/01/03 05:53:50;;;;;;;20.70;4.00;;;11.00;84.40;;;;;;5096766;28;20016;-79
2022/01/03 05:56:16;;;;;;;17.48;3.47;;;11.00;84.40;;;;;;5096699;28;20015;-80
2022/01/03 05:58:43;;;;;;;23.10;3.83;;;11.00;84.40;;;;;;5096548;28;20016;-79
2022/01/03 06:01:08;;;;;;;17.88;3.67;;;11.00;84.40;;;;;;5114704;28;20045;-79
2022/01/03 06:03:38;;;;;;;25.67;4.25;;;11.00;84.40;;;;;;5096140;28;20106;-79
2022/01/03 06:06:17;;;;;;;25.10;4.30;;;11.00;84.20;;;;;;5114557;28;20479;-79
2022/01/03 06:08:43;;;;;;;20.05;4.10;;;11.00;84.20;;;;;;5096371;28;20073;-79
2022/01/03 06:11:08;;;;;;;27.92;4.65;;;11.00;84.10;;;;;;5096277;28;20031;-79
2022/01/03 06:13:34;;;;;;;24.67;4.25;;;11.00;84.10;;;;;;5096151;28;20027;-80
2022/01/03 06:16:00;;;;;;;16.48;3.80;;;11.00;84.20;;;;;;5114694;28;20055;-80
2022/01/03 06:18:26;;;;;;;20.55;3.67;;;11.00;84.20;;;;;;5114567;28;20387;-78
2022/01/03 06:20:51;;;;;;;22.02;3.97;;;11.00;84.20;;;;;;5114639;28;20020;-78
2022/01/03 06:23:19;;;;;;;14.73;3.42;;;11.00;84.10;;;;;;5095889;28;20390;-79
2022/01/03 06:25:45;;;;;;;18.58;3.58;;;11.00;84.20;;;;;;5096132;28;20016;-79
2022/01/03 06:28:12;;;;;;;25.42;4.35;;;11.00;84.00;;;;;;5095900;28;20130;-80
2022/01/03 06:30:39;;;;;;;20.65;3.92;;;11.00;83.90;;;;;;5114091;28;20027;-79
2022/01/03 06:33:05;;;;;;;19.15;3.65;;;11.00;83.90;;;;;;5095945;28;20083;-80
2022/01/03 06:35:32;;;;;;;23.38;4.07;;;11.00;83.90;;;;;;5096304;28;20494;-80
2022/01/03 06:37:58;;;;;;;21.00;3.88;;;11.00;83.70;;;;;;5095707;28;20016;-80
2022/01/03 06:40:25;;;;;;;18.33;3.83;;;11.00;83.70;;;;;;5095699;28;20034;-79
2022/01/03 06:42:51;;;;;;;17.98;3.42;;;11.00;83.50;;;;;;5095512;28;20028;-78
2022/01/03 06:45:16;;;;;;;18.17;4.13;;;11.00;83.40;;;;;;5113719;28;20483;-79
2022/01/03 06:47:42;;;;;;;16.77;3.10;;;11.00;83.50;;;;;;5113682;28;20035;-78
2022/01/03 06:50:08;;;;;;;23.00;4.05;;;11.00;83.50;;;;;;5095330;28;20028;-79
2022/01/03 06:52:34;;;;;;;14.93;3.67;;;11.10;83.50;;;;;;5095347;28;20168;-79
2022/01/03 06:55:00;;;;;;;19.13;4.20;;;11.10;83.00;;;;;;5095584;28;20057;-80
2022/01/03 06:57:29;;;;;;;20.40;4.10;;;11.10;83.00;;;;;;5096074;28;20080;-81
2022/01/03 06:59:55;;;;;;;20.55;4.20;;;11.10;82.90;;;;;;5095107;28;20048;-80
2022/01/03 07:02:22;;;;;;;19.15;4.35;;;11.10;82.60;;;;;;5113565;28;20024;-82
2022/01/03 07:04:48;;;;;;;24.10;4.60;;;11.10;82.70;;;;;;5113822;28;20079;-79
2022/01/03 07:07:14;;;;;;;16.35;3.47;;;11.10;82.70;;;;;;5092331;28;20059;-81
2022/01/03 07:09:40;;;;;;;15.32;3.55;;;11.10;82.70;;;;;;5095106;28;20400;-80
2022/01/03 07:12:06;;;;;;;23.65;4.25;;;11.10;82.60;;;;;;5113325;28;20030;-79
2022/01/03 07:19:50;;;;;;;17.52;3.53;;;11.10;82.50;;;;;;5113654;28;20136;-80
2022/01/03 07:22:16;;;;;;;14.75;3.45;;;11.20;82.60;;;;;;5095114;28;20034;-78
2022/01/03 07:24:42;;;;;;;16.77;3.50;;;11.20;82.60;;;;;;5095183;28;20490;-81
2022/01/03 07:27:42;;;;;;;21.55;3.95;;;11.20;82.70;;;;;;5095327;28;20016;-80
2022/01/03 07:30:08;;;;;;;20.25;3.60;;;11.10;82.60;;;;;;5113222;28;20402;-80
2022/01/03 07:32:34;;;;;;;18.33;3.70;;;11.10;82.70;;;;;;5095336;28;20115;-79
2022/01/03 07:34:59;;;;;;;21.83;3.83;;;11.10;82.70;;;;;;5095060;28;20047;-79
2022/01/03 07:37:25;;;;;;;22.98;4.00;;;11.10;82.80;;;;;;5113413;28;20023;-79
2022/01/03 07:39:52;;;;;;;14.82;3.28;;;11.10;82.90;;;;;;5094927;28;20020;-79
2022/01/03 07:42:17;;;;;;;20.95;3.55;;;11.10;82.90;;;;;;5113262;28;20102;-80
2022/01/03 07:44:43;;;;;;;18.25;4.57;;;11.20;82.90;;;;;;5094899;28;20464;-78
2022/01/03 07:47:09;;;;;;;18.65;3.67;;;11.20;83.00;;;;;;5094987;28;20019;-78
2022/01/03 07:49:34;;;;;;;12.02;3.10;;;11.20;82.90;;;;;;5094816;28;20470;-78
2022/01/03 07:52:00;;;;;;;14.73;3.45;;;11.10;82.90;;;;;;5095398;28;20023;-80
2022/01/03 07:54:25;;;;;;;17.88;3.70;;;11.10;82.90;;;;;;5113009;28;20027;-79
2022/01/03 07:56:51;;;;;;;17.40;3.63;;;11.20;83.00;;;;;;5094939;28;20020;-78
2022/01/03 07:59:17;;;;;;;22.15;4.03;;;11.10;82.80;;;;;;5112614;28;20040;-79
2022/01/03 08:01:42;;;;;;;16.02;3.78;;;11.10;82.70;;;;;;5112973;28;20488;-80
2022/01/03 08:04:09;;;;;;;17.48;4.25;;;11.10;82.90;;;;;;5094641;28;20046;-80
2022/01/03 08:06:35;;;;;;;20.67;4.32;;;11.10;82.90;;;;;;5090497;28;20051;-80
2022/01/03 08:09:01;;;;;;;19.52;3.17;;;11.10;82.90;;;;;;5090256;28;20036;-80
2022/01/03 08:11:26;;;;;;;15.18;3.42;;;11.20;83.00;;;;;;5073382;28;20028;-79
2022/01/03 08:13:53;;;;;;;16.08;3.25;;;11.10;82.90;;;;;;5073195;28;20061;-78
2022/01/03 08:16:19;;;;;;;16.38;3.58;;;11.20;83.00;;;;;;5073195;28;20036;-81
2022/01/03 08:18:45;;;;;;;16.25;3.40;;;11.10;82.90;;;;;;5073459;28;20442;-78
2022/01/03 08:21:10;;;;;;;19.63;3.90;;;11.20;82.80;;;;;;5073667;28;20036;-80
2022/01/03 08:23:36;;;;;;;16.02;3.58;;;11.20;82.70;;;;;;5073917;28;20507;-80
2022/01/03 08:26:02;;;;;;;22.38;4.05;;;11.20;82.70;;;;;;5090583;28;20093;-80
2022/01/03 08:28:28;;;;;;;18.60;4.03;;;11.20;82.70;;;;;;5092904;28;20028;-81
2022/01/03 08:30:53;;;;;;;19.08;3.67;;;11.20;82.50;;;;;;5076860;28;20502;-81
2022/01/03 08:33:19;;;;;;;16.95;3.85;;;11.20;82.20;;;;;;5077332;28;20028;-80
2022/01/03 08:35:44;;;;;;;15.45;3.40;;;11.20;82.20;;;;;;5094320;28;20078;-81
2022/01/03 08:38:10;;;;;;;14.80;3.30;;;11.20;82.40;;;;;;5110494;28;20108;-79
2022/01/03 08:40:35;;;;;;;18.38;4.03;;;11.20;82.40;;;;;;5097871;28;20028;-80
2022/01/03 08:43:01;;;;;;;15.93;3.45;;;11.20;82.10;;;;;;5116295;28;20024;-79
2022/01/03 08:45:27;;;;;;;18.35;4.05;;;11.20;82.10;;;;;;5098195;28;20020;-78
2022/01/03 08:47:52;;;;;;;16.05;3.50;;;11.20;82.10;;;;;;5098419;28;20031;-79
2022/01/03 08:50:18;;;;;;;16.92;3.33;;;11.20;81.90;;;;;;5116738;28;20439;-80
2022/01/03 08:52:45;;;;;;;35.33;5.18;;;11.20;81.80;;;;;;5117931;28;20027;-80
2022/01/03 08:55:11;;;;;;;14.05;3.60;;;11.20;81.90;;;;;;5099423;28;20119;-77
2022/01/03 08:57:38;;;;;;;16.02;3.45;;;11.30;81.70;;;;;;5119441;28;20055;-78
2022/01/03 09:00:05;;;;;;;12.82;3.50;;;11.20;81.60;;;;;;5118701;28;20618;-77
2022/01/03 09:02:30;;;;;;;15.85;3.13;;;11.20;81.70;;;;;;5100486;28;20422;-78
2022/01/03 09:04:56;;;;;;;15.18;3.70;;;11.30;81.70;;;;;;5117331;28;20076;-81
2022/01/03 09:07:21;;;;;;;14.02;3.25;;;11.30;81.50;;;;;;5118511;28;20459;-80
2022/01/03 09:09:47;;;;;;;12.25;3.60;;;11.20;81.50;;;;;;5101277;28;20070;-80
2022/01/03 09:12:13;;;;;;;10.75;2.67;;;11.20;81.60;;;;;;5118800;28;20020;-80
2022/01/03 09:14:38;;;;;;;16.42;3.33;;;11.30;81.80;;;;;;5119325;28;20016;-80
2022/01/03 09:17:04;;;;;;;13.20;3.28;;;11.30;81.80;;;;;;5119310;28;20090;-80
2022/01/03 09:19:31;;;;;;;15.32;3.53;;;11.30;81.70;;;;;;5100038;28;20016;-80
2022/01/03 09:22:10;;;;;;;14.82;3.10;;;11.30;81.60;;;;;;5098553;28;20027;-78
2022/01/03 09:24:46;;;;;;;16.15;3.13;;;11.30;81.60;;;;;;5116252;28;20471;-78
2022/01/03 09:29:59;;;;;;;14.23;3.17;;;11.40;81.50;;;;;;5116714;28;20030;-77
2022/01/03 09:32:25;;;;;;;13.77;3.10;;;11.40;81.60;;;;;;5099296;28;20471;-78
2022/01/03 09:34:51;;;;;;;16.95;3.42;;;11.30;81.50;;;;;;5098934;28;20020;-77
2022/01/03 09:37:20;;;;;;;15.27;3.33;;;11.40;81.60;;;;;;5099253;28;20027;-80
2022/01/03 09:39:47;;;;;;;19.35;3.95;;;11.40;81.60;;;;;;5096022;28;20027;-79
2022/01/03 09:42:19;;;;;;;18.33;3.80;;;11.40;81.60;;;;;;5115207;28;20142;-78
